To NAV CANADA Home Page Login to a new session Search on AWWS site Feedback and Comments Disclaimer Vers la page française équivalente Tips FAQ What's new on the site To the Forecasts and Observations / NOTAM section To "File a Flight Plan" website Publications and other links Update of the User's profile FIC Telephone Numbers My Weather Data Folder Route Weather Data Regional Weather Data Local Weather Data To the Forecasts and Observations / NOTAM section
Request Generated 08/22/2017 at 01:40:22 UTC . Weather information available at that time is displayed.

METAR/TAF

RED DEER REGIONAL/AB    

METAR CYQF 220100Z 35003KT 15SM BKN090 20/08 A3011 RMK AC7 SLP208
DENSITY ALT 4000FT=
METAR CYQF 220000Z 36003KT 15SM BKN100 21/08 A3011 RMK AC7 SLP208
DENSITY ALT 4100FT=
METAR CYQF 212300Z VRB02KT 15SM FEW060 BKN100 BKN260 21/07 A3011 RMK
CU1AC5CI1 SLP212 DENSITY ALT 4200FT=

TAF CYQF 212340Z 2200/2212 VRB03KT P6SM FEW060 BKN100
BECMG 2210/2212 13006KT
RMK NXT FCST BY 220600Z=
Your time UTC time
Weather data provided by Environment Canada and NAV CANADA